createdAt,value
2018-04-12T00:00:06.503Z,73.80
2018-04-12T00:01:06.544Z,73.71
2018-04-12T00:02:06.534Z,73.80
2018-04-12T00:03:06.517Z,73.80
2018-04-12T00:04:06.516Z,74.48
2018-04-12T00:05:06.540Z,74.44
2018-04-12T00:06:06.538Z,74.82
2018-04-12T00:07:06.463Z,74.48
2018-04-12T00:08:06.561Z,75.10
2018-04-12T00:09:06.463Z,74.09
2018-04-12T00:10:06.460Z,74.82
2018-04-12T00:11:06.501Z,75.24
2018-04-12T00:12:06.549Z,75.20
2018-04-12T00:13:06.458Z,75.68
2018-04-12T00:14:06.477Z,75.10
2018-04-12T00:15:06.475Z,75.49
2018-04-12T00:16:06.451Z,75.68
2018-04-12T00:17:06.482Z,76.06
2018-04-12T00:18:06.491Z,76.45
2018-04-12T00:19:06.453Z,76.54
2018-04-12T00:20:06.448Z,76.25
2018-04-12T00:21:06.445Z,76.45
2018-04-12T00:22:06.448Z,76.54
2018-04-12T00:23:06.445Z,76.73
2018-04-12T00:24:06.466Z,76.06
2018-04-12T00:25:06.443Z,76.16
2018-04-12T00:26:06.438Z,75.78
2018-04-12T00:27:06.462Z,75.30
2018-04-12T00:28:06.474Z,75.10
2018-04-12T00:29:06.437Z,74.91
2018-04-12T00:30:06.439Z,75.01
2018-04-12T00:31:06.442Z,75.30
2018-04-12T00:32:06.441Z,75.10
2018-04-12T00:33:06.494Z,75.01
2018-04-12T00:34:06.508Z,74.48
2018-04-12T00:35:06.578Z,74.82
2018-04-12T00:36:06.431Z,75.24
2018-04-12T00:37:06.451Z,74.48
2018-04-12T00:38:06.498Z,73.61
2018-04-12T00:39:06.425Z,73.61
2018-04-12T00:40:06.457Z,72.85
2018-04-12T00:41:06.509Z,72.85
2018-04-12T00:42:06.421Z,72.79
2018-04-12T00:43:06.419Z,72.56
2018-04-12T00:44:06.471Z,72.85
2018-04-12T00:45:06.465Z,73.71
2018-04-12T00:46:06.452Z,73.90
2018-04-12T00:47:06.421Z,74.28
2018-04-12T00:48:06.418Z,74.28
2018-04-12T00:49:06.415Z,74.76
2018-04-12T00:50:06.463Z,74.28
2018-04-12T00:51:06.425Z,74.28
2018-04-12T00:52:06.418Z,74.95
2018-04-12T00:53:06.406Z,74.28
2018-04-12T00:54:06.405Z,74.91
2018-04-12T00:55:06.468Z,74.66
2018-04-12T00:56:06.405Z,74.63
2018-04-12T00:57:06.416Z,74.53
2018-04-12T00:58:06.426Z,74.73
2018-04-12T00:59:06.399Z,75.10
2018-04-12T01:00:06.406Z,75.01
2018-04-12T01:01:06.413Z,76.06
2018-04-12T01:02:06.438Z,77.17
2018-04-12T01:03:06.396Z,77.17
2018-04-12T01:04:06.407Z,76.06
2018-04-12T01:05:06.393Z,75.78
2018-04-12T01:06:06.395Z,77.08
2018-04-12T01:07:06.390Z,77.26
2018-04-12T01:08:06.394Z,78.13
2018-04-12T01:53:59.438Z,81.10
2018-04-12T01:54:40.852Z,81.67
2018-04-12T01:55:40.843Z,82.24
2018-04-12T01:56:40.853Z,82.43
2018-04-12T01:57:40.833Z,82.19
2018-04-12T01:58:40.825Z,81.04
2018-04-12T01:59:40.841Z,80.76
2018-04-12T02:00:40.922Z,80.95
2018-04-12T02:01:40.845Z,81.62
2018-04-12T02:02:40.814Z,81.77
2018-04-12T02:03:40.810Z,81.58
2018-04-12T02:04:40.872Z,82.15
2018-04-12T02:05:40.841Z,81.48
2018-04-12T02:06:40.811Z,82.24
2018-04-12T02:07:40.803Z,81.67
2018-04-12T02:08:40.842Z,82.24
2018-04-12T02:09:40.802Z,81.77
2018-04-12T02:10:40.797Z,81.77
2018-04-12T02:11:40.802Z,82.43
2018-04-12T02:12:40.793Z,82.29
2018-04-12T02:13:40.796Z,81.14
2018-04-12T02:14:40.810Z,80.95
2018-04-12T02:15:40.786Z,80.76
2018-04-12T02:16:40.784Z,81.48
2018-04-12T02:17:40.820Z,82.43
2018-04-12T02:18:40.780Z,82.34
2018-04-12T02:19:40.780Z,82.43
2018-04-12T02:20:40.777Z,83.20
2018-04-12T02:21:40.777Z,83.01
2018-04-12T02:22:40.777Z,82.43
2018-04-12T02:23:40.781Z,83.58
2018-04-12T02:24:40.785Z,82.72
2018-04-12T02:25:40.770Z,83.20
2018-04-12T02:26:40.768Z,83.48
2018-04-12T02:27:40.790Z,83.16
2018-04-12T02:28:40.832Z,83.39
2018-04-12T02:29:40.762Z,82.82
2018-04-12T02:30:40.794Z,83.20
2018-04-12T02:31:40.752Z,83.96
2018-04-12T02:32:40.803Z,83.39
2018-04-12T02:33:40.768Z,83.87
2018-04-12T02:34:40.796Z,83.29
2018-04-12T02:35:40.772Z,82.91
2018-04-12T02:36:40.789Z,83.92
2018-04-12T02:37:40.781Z,83.87
2018-04-12T02:38:40.768Z,83.48
2018-04-12T02:39:40.733Z,83.01
2018-04-12T02:40:40.792Z,83.29
2018-04-12T02:41:40.729Z,83.01
2018-04-12T02:42:40.793Z,83.01
2018-04-12T02:43:40.726Z,82.72
2018-04-12T02:44:40.787Z,83.67
2018-04-12T02:45:40.749Z,84.69
2018-04-12T02:46:40.733Z,84.44
2018-04-12T02:47:40.714Z,83.58
2018-04-12T02:48:40.733Z,83.01
2018-04-12T02:49:40.779Z,81.81
2018-04-12T02:50:40.767Z,81.43
2018-04-12T02:51:40.704Z,81.43
2018-04-12T02:52:40.747Z,81.48
2018-04-12T02:53:47.766Z,81.48
2018-04-12T02:54:40.700Z,80.91
2018-04-12T02:55:40.695Z,81.58
2018-04-12T02:57:08.376Z,81.58
2018-04-12T02:57:40.693Z,82.63
2018-04-12T02:58:40.686Z,83.01
2018-04-12T02:59:49.580Z,81.67
2018-04-12T03:00:40.725Z,82.06
2018-04-12T03:01:40.730Z,81.24
2018-04-12T03:02:40.682Z,81.77
2018-04-12T03:22:17.446Z,81.62
2018-04-12T03:23:17.405Z,82.06
2018-04-12T03:24:17.392Z,81.96
2018-04-12T03:25:17.401Z,81.86
2018-04-12T03:26:17.385Z,81.71
2018-04-12T03:27:17.364Z,81.24
2018-04-12T03:28:17.360Z,80.66
2018-04-12T03:29:17.366Z,81.52
2018-04-12T03:30:17.350Z,80.47
2018-04-12T03:31:17.343Z,80.85
2018-04-12T03:32:17.340Z,81.38
2018-04-12T03:33:17.346Z,81.14
2018-04-12T03:34:17.333Z,81.24
2018-04-12T03:35:17.327Z,81.38
2018-04-12T03:36:17.328Z,81.86
2018-04-12T03:37:17.350Z,82.43
2018-04-12T03:38:17.323Z,82.43
2018-04-12T03:39:17.318Z,82.72
2018-04-12T03:40:17.311Z,82.82
2018-04-12T03:41:17.325Z,82.53
2018-04-12T03:42:17.305Z,81.20
2018-04-12T03:43:17.305Z,80.66
2018-04-12T03:44:17.306Z,81.10
2018-04-12T03:45:17.302Z,82.06
2018-04-12T03:46:17.337Z,81.29
2018-04-12T03:47:17.310Z,81.48
2018-04-12T03:48:17.290Z,81.48
2018-04-12T03:49:17.301Z,81.58
2018-04-12T03:50:17.344Z,80.76
2018-04-12T03:51:17.287Z,80.57
2018-04-12T03:52:17.291Z,81.29
2018-04-12T03:53:17.276Z,81.29
2018-04-12T03:54:17.269Z,82.06
2018-04-12T03:55:17.261Z,82.15
2018-04-12T03:56:17.265Z,80.95
2018-04-12T03:57:17.260Z,81.48
2018-04-12T03:58:17.275Z,81.38
2018-04-12T03:59:17.328Z,82.72
2018-04-12T04:00:17.254Z,82.72
2018-04-12T04:01:17.255Z,81.10
2018-04-12T04:02:17.245Z,81.10
2018-04-12T04:03:17.243Z,81.10
2018-04-12T04:04:17.252Z,81.20
2018-04-12T04:05:17.236Z,82.68
2018-04-12T04:06:17.237Z,84.01
2018-04-12T04:07:17.253Z,83.54
2018-04-12T04:08:17.232Z,82.63
2018-04-12T04:09:17.234Z,82.49
2018-04-12T04:10:17.227Z,82.87
2018-04-12T04:11:17.219Z,83.20
2018-04-12T04:12:17.230Z,83.64
2018-04-12T04:13:17.217Z,82.97
2018-04-12T04:14:17.214Z,83.01
2018-04-12T04:15:17.245Z,82.97
2018-04-12T04:16:17.208Z,82.43
2018-04-12T04:17:17.210Z,82.06
2018-04-12T04:18:17.203Z,83.25
2018-04-12T04:19:17.252Z,83.64
2018-04-12T04:20:17.252Z,84.40
2018-04-12T04:21:17.199Z,84.59
2018-04-12T04:22:17.205Z,85.50
2018-04-12T04:23:17.206Z,86.74
2018-04-12T04:24:17.192Z,85.78
2018-04-12T04:25:17.222Z,85.54
2018-04-12T04:26:17.228Z,85.64
2018-04-12T04:27:17.184Z,84.97
2018-04-12T04:28:17.175Z,84.78
2018-04-12T04:29:17.205Z,85.06
2018-04-12T04:30:17.186Z,84.30
2018-04-12T04:31:17.166Z,84.11
2018-04-12T04:32:19.090Z,85.06
2018-04-12T04:33:17.165Z,86.55
2018-04-12T04:34:17.159Z,88.36
2018-04-12T04:35:17.161Z,88.55
2018-04-12T04:36:17.166Z,88.36
2018-04-12T04:37:17.154Z,87.98
2018-04-12T04:38:17.145Z,88.22
2018-04-12T04:39:17.187Z,89.55
2018-04-12T04:40:17.192Z,89.55
2018-04-12T04:41:17.165Z,88.60
2018-04-12T04:42:17.137Z,88.36
2018-04-12T04:43:17.164Z,88.70
2018-04-12T04:44:17.143Z,89.65
2018-04-12T04:45:17.131Z,90.41
2018-04-12T04:46:17.142Z,90.89
2018-04-12T04:47:17.137Z,90.79
2018-04-12T04:48:17.158Z,90.64
2018-04-12T04:49:17.141Z,89.50
2018-04-12T04:50:17.153Z,88.64
2018-04-12T04:51:17.156Z,88.07
2018-04-12T04:52:17.111Z,87.50
2018-04-12T04:53:17.098Z,84.88
2018-04-12T04:54:17.099Z,82.06
2018-04-12T04:55:17.125Z,81.67
2018-04-12T04:56:17.119Z,83.54
2018-04-12T04:57:17.110Z,84.49
2018-04-12T04:58:17.090Z,84.69
2018-04-12T04:59:17.117Z,84.78
2018-04-12T05:00:17.085Z,83.16
2018-04-12T05:01:17.136Z,84.30
2018-04-12T05:02:17.081Z,85.06
2018-04-12T05:03:17.096Z,85.25
2018-04-12T05:04:17.072Z,84.49
2018-04-12T05:05:17.076Z,84.20
2018-04-12T05:06:17.117Z,83.83
2018-04-12T05:07:17.116Z,83.06
2018-04-12T05:08:17.098Z,83.54
2018-04-12T05:09:17.060Z,83.44
2018-04-12T05:10:17.060Z,84.69
2018-04-12T05:11:17.162Z,85.97
2018-04-12T05:12:17.047Z,86.83
2018-04-12T05:13:17.051Z,85.97
2018-04-12T05:14:17.051Z,85.93
2018-04-12T05:15:17.035Z,84.01
2018-04-12T05:16:17.054Z,83.92
2018-04-12T05:17:17.058Z,85.54
2018-04-12T05:18:17.093Z,85.88
2018-04-12T05:19:17.026Z,86.45
2018-04-12T05:20:17.059Z,87.21
2018-04-12T05:21:17.022Z,86.74
2018-04-12T05:22:17.025Z,86.11
2018-04-12T05:23:17.035Z,85.54
2018-04-12T05:24:17.045Z,85.25
2018-04-12T05:25:17.012Z,85.06
2018-04-12T05:26:17.011Z,83.54
2018-04-12T05:27:17.009Z,84.01
2018-04-12T05:28:17.004Z,84.11
2018-04-12T05:29:17.012Z,85.93
2018-04-12T05:30:17.031Z,86.74
2018-04-12T05:31:17.036Z,87.21
2018-04-12T05:32:17.012Z,87.98
2018-04-12T05:33:17.056Z,88.26
2018-04-12T05:34:17.020Z,88.55
2018-04-12T05:35:16.991Z,88.55
2018-04-12T05:36:17.023Z,87.45
2018-04-12T05:37:17.023Z,87.83
2018-04-12T05:38:17.005Z,87.64
2018-04-12T05:39:16.994Z,85.21
2018-04-12T05:40:17.008Z,82.86
2018-04-12T05:41:17.068Z,80.95
2018-04-12T05:42:17.016Z,80.90
2018-04-12T05:43:16.995Z,80.51
2018-04-12T05:44:17.025Z,78.93
2018-04-12T05:45:16.979Z,78.93
2018-04-12T05:46:17.011Z,77.97
2018-04-12T05:47:17.014Z,77.01
2018-04-12T05:48:16.981Z,77.15
2018-04-12T05:49:16.993Z,78.60
2018-04-12T05:50:17.010Z,79.79
2018-04-12T05:51:16.986Z,79.85
2018-04-12T05:52:16.985Z,78.83
2018-04-12T05:53:17.015Z,77.44
2018-04-12T05:54:17.001Z,78.07
2018-04-12T05:55:17.019Z,79.08
2018-04-12T05:56:17.030Z,79.65
2018-04-12T05:57:17.003Z,82.48
2018-04-12T05:58:17.040Z,81.09
2018-04-12T05:59:17.034Z,81.95
2018-04-12T06:00:17.002Z,81.18
2018-04-12T06:01:17.038Z,81.18
2018-04-12T06:02:17.015Z,80.46
2018-04-12T06:03:17.009Z,79.22
2018-04-12T06:04:17.056Z,77.34
2018-04-12T06:05:17.066Z,77.34
2018-04-12T06:06:17.014Z,76.39
2018-04-12T06:07:17.012Z,76.29
2018-04-12T06:08:17.057Z,76.86
2018-04-12T06:09:17.047Z,78.01
2018-04-12T06:10:17.025Z,79.69
2018-04-12T06:11:17.107Z,81.41
2018-04-12T06:12:17.062Z,81.37
2018-04-12T06:13:17.056Z,82.32
2018-04-12T06:14:17.063Z,84.10
2018-04-12T06:15:17.032Z,84.39
2018-04-12T06:16:17.074Z,84.39
2018-04-12T06:17:17.031Z,84.10
2018-04-12T06:18:17.084Z,84.14
2018-04-12T06:19:17.047Z,84.10
2018-04-12T06:20:17.065Z,84.77
2018-04-12T06:21:17.135Z,84.39
2018-04-12T06:22:17.078Z,84.48
2018-04-12T06:23:17.098Z,84.67
2018-04-12T06:24:17.023Z,84.77
2018-04-12T06:25:17.030Z,84.86
2018-04-12T06:26:17.019Z,86.01
2018-04-12T06:27:17.022Z,86.25
2018-04-12T06:28:17.018Z,86.77
2018-04-12T06:29:17.017Z,86.01
2018-04-12T06:30:17.025Z,86.68
2018-04-12T06:31:17.070Z,86.87
2018-04-12T06:32:17.057Z,85.38
2018-04-12T06:33:17.029Z,85.00
2018-04-12T06:34:17.038Z,84.86
2018-04-12T06:35:17.010Z,85.82
2018-04-12T06:36:17.005Z,86.10
2018-04-12T06:37:17.022Z,85.63
2018-04-12T06:39:38.096Z,84.81
2018-04-12T06:40:38.046Z,85.19
2018-04-12T06:41:38.052Z,85.34
2018-04-12T06:42:38.040Z,85.82
2018-04-12T06:43:38.040Z,86.87
2018-04-12T06:44:38.058Z,86.87
2018-04-12T06:45:38.033Z,85.63
2018-04-12T06:46:38.064Z,85.58
2018-04-12T06:47:38.029Z,85.67
2018-04-12T06:48:38.029Z,85.77
2018-04-12T06:49:38.025Z,85.53
2018-04-12T06:50:38.026Z,85.63
2018-04-12T06:51:38.030Z,86.20
2018-04-12T06:52:38.027Z,86.05
2018-04-12T06:53:38.037Z,85.29
2018-04-12T06:54:38.022Z,85.48
2018-04-12T06:55:38.022Z,84.52
2018-04-12T06:56:38.017Z,84.52
2018-04-12T06:57:38.015Z,84.62
2018-04-12T06:58:38.010Z,84.52
2018-04-12T06:59:38.007Z,83.90
2018-04-12T07:00:38.014Z,83.13
2018-04-12T07:01:38.014Z,83.04
2018-04-12T07:02:38.003Z,83.33
2018-04-12T07:03:38.021Z,83.42
2018-04-12T07:04:38.015Z,82.94
2018-04-12T07:05:38.003Z,83.18
2018-04-12T07:06:38.027Z,83.95
2018-04-12T07:07:38.001Z,83.80
2018-04-12T07:08:37.996Z,82.84
2018-04-12T07:09:37.996Z,82.46
2018-04-12T07:10:37.989Z,82.65
2018-04-12T07:11:37.989Z,82.75
2018-04-12T07:12:37.989Z,82.37
2018-04-12T07:13:38.008Z,81.70
2018-04-12T07:14:37.987Z,81.32
2018-04-12T07:15:38.016Z,81.32
2018-04-12T07:16:37.984Z,81.45
2018-04-12T07:17:37.977Z,80.88
2018-04-12T07:18:38.000Z,79.83
2018-04-12T07:19:37.978Z,79.73
2018-04-12T07:20:37.980Z,80.21
2018-04-12T07:21:37.975Z,79.73
2018-04-12T07:22:37.985Z,79.00
2018-04-12T07:23:38.278Z,78.24
2018-04-12T07:24:37.970Z,78.14
2018-04-12T07:25:37.968Z,77.95
2018-04-12T07:26:37.973Z,77.57
2018-04-12T07:27:37.962Z,78.05
2018-04-12T07:28:37.977Z,77.48
2018-04-12T07:29:37.961Z,77.19
2018-04-12T07:30:38.006Z,77.67
2018-04-12T07:31:37.961Z,75.95
2018-04-12T07:32:37.965Z,76.77
2018-04-12T07:33:37.957Z,77.19
2018-04-12T07:34:37.955Z,76.52
2018-04-12T07:35:37.952Z,76.42
2018-04-12T07:36:37.968Z,75.76
2018-04-12T07:37:37.962Z,74.90
2018-04-12T07:38:37.949Z,74.80
2018-04-12T07:39:37.959Z,74.51
2018-04-12T07:40:37.951Z,74.22
2018-04-12T07:41:37.947Z,73.84
2018-04-12T07:42:37.951Z,74.13
2018-04-12T07:43:38.010Z,73.94
2018-04-12T07:44:37.951Z,74.04
2018-04-12T07:45:37.948Z,73.84
2018-04-12T07:46:37.946Z,74.07
2018-04-12T07:47:37.940Z,73.17
2018-04-12T07:48:37.940Z,73.75
2018-04-12T07:49:37.954Z,73.27
2018-04-12T07:50:37.957Z,73.27
2018-04-12T07:51:37.940Z,73.69
2018-04-12T07:52:37.946Z,73.84
2018-04-12T07:53:37.943Z,74.04
2018-04-12T07:54:37.975Z,74.07
2018-04-12T07:55:37.929Z,73.88
2018-04-12T07:56:37.953Z,73.94
2018-04-12T07:57:37.926Z,74.51
2018-04-12T07:58:37.933Z,74.70
2018-04-12T07:59:37.928Z,75.18
2018-04-12T08:00:37.926Z,74.90
2018-04-12T08:01:37.927Z,75.56
2018-04-12T08:02:37.970Z,75.18
2018-04-12T08:03:37.947Z,74.51
2018-04-12T08:04:37.932Z,75.18
2018-04-12T08:05:37.936Z,75.18
2018-04-12T08:06:37.926Z,75.37
2018-04-12T08:07:37.922Z,75.27
2018-04-12T08:08:37.920Z,74.99
2018-04-12T08:09:37.925Z,74.90
2018-04-12T08:10:37.941Z,74.26
2018-04-12T08:11:37.920Z,74.93
2018-04-12T08:12:37.942Z,73.88
2018-04-12T08:13:37.932Z,74.36
2018-04-12T08:14:37.915Z,72.73
2018-04-12T08:15:37.922Z,72.92
2018-04-12T08:16:37.945Z,72.83
2018-04-12T08:17:37.922Z,72.92
2018-04-12T08:18:37.973Z,72.73
2018-04-12T08:19:37.941Z,71.91
2018-04-12T08:20:37.935Z,71.23
2018-04-12T08:21:37.919Z,71.81
2018-04-12T08:22:37.927Z,71.42
2018-04-12T08:23:37.920Z,71.71
2018-04-12T08:24:37.918Z,70.47
2018-04-12T08:25:37.940Z,70.09
2018-04-12T08:26:37.942Z,70.09
2018-04-12T08:27:37.916Z,71.14
2018-04-12T08:28:37.922Z,71.52
2018-04-12T08:29:37.931Z,71.71
2018-04-12T08:30:37.914Z,71.62
2018-04-12T08:31:37.938Z,71.62
2018-04-12T08:32:37.923Z,71.62
2018-04-12T08:33:37.925Z,71.71
2018-04-12T08:34:37.962Z,70.56
2018-04-12T08:35:37.926Z,70.28
2018-04-12T08:36:37.918Z,69.17
2018-04-12T08:37:37.922Z,68.87
2018-04-12T08:38:37.928Z,69.23
2018-04-12T08:39:37.932Z,70.41
2018-04-12T08:40:37.932Z,69.35
2018-04-12T08:41:37.939Z,69.54
2018-04-12T08:42:37.958Z,69.26
2018-04-12T08:43:37.969Z,68.68
2018-04-12T08:44:38.001Z,68.21
2018-04-12T08:45:37.962Z,67.54
2018-04-12T08:46:37.929Z,67.72
2018-04-12T08:47:37.975Z,66.86
2018-04-12T08:48:38.005Z,67.44
2018-04-12T08:49:37.941Z,67.34
2018-04-12T08:50:37.936Z,67.15
2018-04-12T08:51:37.933Z,67.63
2018-04-12T08:52:37.927Z,67.63
2018-04-12T08:53:37.932Z,68.87
2018-04-12T08:54:37.934Z,69.17
2018-04-12T08:55:37.937Z,69.74
2018-04-12T08:56:37.934Z,68.91
2018-04-12T08:57:37.944Z,68.81
2018-04-12T08:58:37.943Z,68.01
2018-04-12T08:59:37.962Z,68.59
2018-04-12T09:00:37.969Z,68.68
2018-04-12T09:01:37.956Z,69.64
2018-04-12T09:02:37.938Z,69.54
2018-04-12T09:03:37.939Z,69.07
2018-04-12T09:04:37.952Z,69.17
2018-04-12T09:05:37.945Z,68.59
2018-04-12T09:06:37.943Z,68.68
2018-04-12T09:07:37.963Z,68.40
2018-04-12T09:08:37.955Z,68.01
2018-04-12T09:09:37.945Z,68.40
2018-04-12T09:10:37.948Z,68.01
2018-04-12T09:11:37.947Z,68.11
2018-04-12T09:12:37.967Z,68.11
2018-04-12T09:13:37.953Z,68.49
2018-04-12T09:14:37.958Z,68.11
2018-04-12T09:15:37.959Z,68.21
2018-04-12T09:16:37.966Z,67.91
2018-04-12T09:17:38.040Z,68.30
2018-04-12T09:18:37.954Z,68.30
2018-04-12T09:19:37.958Z,68.11
2018-04-12T09:20:38.006Z,68.01
2018-04-12T09:21:37.968Z,68.11
2018-04-12T09:22:37.994Z,68.21
2018-04-12T09:23:37.969Z,67.91
2018-04-12T09:24:37.968Z,68.40
2018-04-12T09:25:37.971Z,68.01
2018-04-12T09:26:37.982Z,68.49
2018-04-12T09:27:37.969Z,68.68
2018-04-12T09:28:37.972Z,68.87
2018-04-12T09:29:37.972Z,68.49
2018-04-12T09:30:37.975Z,68.68
2018-04-12T09:31:38.001Z,68.68
2018-04-12T09:32:37.975Z,68.68
2018-04-12T09:33:37.975Z,69.17
2018-04-12T09:34:37.985Z,68.74
2018-04-12T09:35:37.975Z,67.91
2018-04-12T09:36:37.977Z,66.67
2018-04-12T09:37:37.978Z,66.96
2018-04-12T09:38:37.982Z,66.67
2018-04-12T09:39:37.995Z,65.91
2018-04-12T09:40:37.986Z,67.02
2018-04-12T09:41:37.998Z,67.05
2018-04-12T09:42:38.004Z,66.96
2018-04-12T09:43:37.992Z,66.58
2018-04-12T09:44:37.998Z,66.86
2018-04-12T09:45:37.987Z,66.86
2018-04-12T09:46:37.986Z,66.77
2018-04-12T09:47:37.994Z,66.67
2018-04-12T09:48:37.999Z,67.44
2018-04-12T09:49:37.987Z,67.44
2018-04-12T09:50:38.007Z,67.25
2018-04-12T09:51:38.005Z,67.63
2018-04-12T09:52:38.003Z,67.72
2018-04-12T09:53:37.996Z,68.30
2018-04-12T09:54:38.006Z,67.91
2018-04-12T09:55:37.991Z,68.21
2018-04-12T09:56:38.001Z,68.94
2018-04-12T09:57:38.001Z,69.13
2018-04-12T09:58:38.016Z,69.32
2018-04-12T09:59:38.018Z,69.23
2018-04-12T10:00:38.032Z,69.80
2018-04-12T10:01:38.036Z,70.37
2018-04-12T10:02:38.007Z,70.47
2018-04-12T10:03:38.004Z,70.76
2018-04-12T10:04:38.068Z,70.47
2018-04-12T10:05:38.001Z,71.23
2018-04-12T10:06:37.999Z,70.76
2018-04-12T10:07:38.021Z,70.66
2018-04-12T10:08:38.013Z,70.95
2018-04-12T10:09:38.008Z,70.56
2018-04-12T10:10:38.006Z,70.56
2018-04-12T10:11:38.017Z,70.47
2018-04-12T10:12:38.004Z,69.99
2018-04-12T10:13:38.041Z,69.32
2018-04-12T10:14:38.005Z,69.51
2018-04-12T10:15:38.015Z,69.70
2018-04-12T10:16:38.033Z,69.80
2018-04-12T10:17:38.008Z,69.32
2018-04-12T10:18:38.004Z,69.23
2018-04-12T10:19:38.009Z,68.84
2018-04-12T10:20:38.004Z,69.17
2018-04-12T10:21:38.043Z,68.68
2018-04-12T10:22:38.019Z,68.01
2018-04-12T10:23:38.008Z,68.11
2018-04-12T10:24:38.008Z,67.72
2018-04-12T10:25:38.028Z,67.28
2018-04-12T10:26:38.011Z,66.99
2018-04-12T10:27:38.006Z,66.80
2018-04-12T10:28:38.007Z,66.71
2018-04-12T10:29:38.016Z,66.89
2018-04-12T10:30:38.009Z,66.96
2018-04-12T10:31:38.015Z,67.15
2018-04-12T10:32:38.012Z,67.25
2018-04-12T10:33:38.008Z,67.44
2018-04-12T10:34:38.022Z,67.25
2018-04-12T10:35:38.036Z,67.72
2018-04-12T10:36:38.013Z,67.63
2018-04-12T10:37:38.018Z,68.11
2018-04-12T10:38:38.020Z,68.11
2018-04-12T10:39:38.042Z,67.34
2018-04-12T10:40:38.051Z,67.91
2018-04-12T10:41:38.078Z,68.01
2018-04-12T10:42:38.030Z,67.66
2018-04-12T10:43:38.023Z,67.57
2018-04-12T10:44:38.023Z,68.14
2018-04-12T10:45:38.021Z,67.57
2018-04-12T10:46:38.034Z,67.47
2018-04-12T10:47:38.040Z,67.38
2018-04-12T10:48:38.028Z,68.05
2018-04-12T10:49:38.044Z,67.66
2018-04-12T10:50:38.084Z,67.57
2018-04-12T10:51:38.040Z,67.99
2018-04-12T10:52:38.047Z,67.12
2018-04-12T10:53:38.031Z,66.55
2018-04-12T10:54:38.032Z,66.26
2018-04-12T10:55:38.032Z,67.12
2018-04-12T10:56:38.029Z,67.02
2018-04-12T10:57:38.062Z,66.06
2018-04-12T10:58:38.041Z,65.88
2018-04-12T10:59:38.055Z,66.26
2018-04-12T11:00:38.037Z,65.39
2018-04-12T11:01:38.073Z,65.39
2018-04-12T11:02:38.035Z,65.97
2018-04-12T11:03:38.037Z,65.05
2018-04-12T11:04:38.040Z,64.47
2018-04-12T11:05:38.067Z,63.99
2018-04-12T11:06:38.044Z,64.47
2018-04-12T11:07:38.048Z,64.05
2018-04-12T11:08:38.048Z,63.86
2018-04-12T11:09:38.049Z,63.86
2018-04-12T11:10:38.053Z,64.05
2018-04-12T11:11:38.067Z,63.96
2018-04-12T11:12:38.050Z,63.57
2018-04-12T11:13:38.053Z,63.67
2018-04-12T11:14:38.064Z,63.86
2018-04-12T11:15:38.050Z,63.76
2018-04-12T11:16:38.057Z,64.05
2018-04-12T11:17:38.062Z,63.57
2018-04-12T11:18:38.066Z,63.00
2018-04-12T11:19:38.076Z,63.00
2018-04-12T11:20:38.069Z,63.29
2018-04-12T11:21:38.090Z,63.19
2018-04-12T11:22:38.090Z,62.81
2018-04-12T11:23:38.133Z,62.16
2018-04-12T11:24:38.062Z,61.49
2018-04-12T11:25:38.107Z,61.69
2018-04-12T11:26:38.064Z,62.33
2018-04-12T11:27:38.086Z,63.09
2018-04-12T11:28:38.095Z,63.48
2018-04-12T11:29:38.067Z,62.33
2018-04-12T11:30:38.083Z,61.59
2018-04-12T11:31:38.067Z,61.37
2018-04-12T11:32:38.118Z,61.66
2018-04-12T11:33:38.070Z,62.33
2018-04-12T11:34:38.094Z,61.85
2018-04-12T11:35:38.086Z,61.69
2018-04-12T11:36:38.079Z,61.78
2018-04-12T11:37:38.084Z,62.04
2018-04-12T11:38:38.098Z,62.26
2018-04-12T11:39:38.095Z,61.49
2018-04-12T11:40:38.120Z,62.07
2018-04-12T11:41:38.076Z,61.59
2018-04-12T11:42:38.122Z,61.56
2018-04-12T11:43:38.407Z,61.69
2018-04-12T11:44:38.080Z,61.88
2018-04-12T11:45:38.088Z,61.49
2018-04-12T11:46:38.116Z,61.02
2018-04-12T11:47:38.087Z,61.21
2018-04-12T11:48:38.109Z,61.02
2018-04-12T11:49:38.141Z,60.92
2018-04-12T11:50:38.095Z,61.11
2018-04-12T11:51:38.102Z,61.02
2018-04-12T11:52:38.243Z,61.02
2018-04-12T11:53:38.098Z,60.35
2018-04-12T11:54:38.093Z,60.25
2018-04-12T11:55:38.296Z,59.58
2018-04-12T11:56:38.103Z,59.86
2018-04-12T11:57:38.120Z,59.61
2018-04-12T11:58:38.115Z,59.32
2018-04-12T11:59:38.101Z,59.61
2018-04-12T12:00:38.102Z,60.11
2018-04-12T12:01:38.104Z,58.74
2018-04-12T12:02:38.103Z,58.87
2018-04-12T12:03:38.106Z,58.94
2018-04-12T12:04:38.499Z,58.55
2018-04-12T12:05:38.137Z,58.45
2018-04-12T12:06:38.129Z,58.64
2018-04-12T12:07:38.139Z,58.45
2018-04-12T12:08:38.141Z,58.84
2018-04-12T12:09:38.145Z,58.55
2018-04-12T12:10:38.141Z,58.45
2018-04-12T12:11:38.164Z,59.12
2018-04-12T12:12:38.129Z,59.32
2018-04-12T12:13:38.153Z,58.26
2018-04-12T12:14:38.168Z,58.17
2018-04-12T12:15:38.164Z,57.81
2018-04-12T12:16:38.181Z,57.52
2018-04-12T12:17:38.256Z,57.04
2018-04-12T12:18:38.220Z,56.66
2018-04-12T12:19:38.173Z,56.85
2018-04-12T12:20:38.142Z,57.04
2018-04-12T12:21:38.175Z,56.66
2018-04-12T12:22:38.201Z,56.95
2018-04-12T12:23:38.266Z,56.76
2018-04-12T12:24:38.150Z,56.46
2018-04-12T12:25:38.157Z,56.95
2018-04-12T12:26:38.159Z,56.98
2018-04-12T12:27:38.165Z,56.21
2018-04-12T12:28:38.170Z,56.66
2018-04-12T12:29:38.171Z,57.81
2018-04-12T12:30:38.171Z,57.33
2018-04-12T12:31:38.175Z,57.26
2018-04-12T12:32:38.173Z,56.04
2018-04-12T12:33:38.200Z,56.04
2018-04-12T12:34:38.178Z,54.50
2018-04-12T12:35:38.195Z,53.70
2018-04-12T12:36:38.187Z,53.52
2018-04-12T12:37:38.199Z,53.61
2018-04-12T12:38:38.200Z,54.00
2018-04-12T12:39:38.198Z,53.03
2018-04-12T12:40:38.204Z,52.65
2018-04-12T12:41:38.220Z,53.32
2018-04-12T12:42:38.204Z,54.09
2018-04-12T12:43:38.211Z,53.54
2018-04-12T12:44:38.240Z,53.74
2018-04-12T12:45:38.221Z,53.64
2018-04-12T12:46:38.232Z,53.80
2018-04-12T12:47:38.212Z,54.67
2018-04-12T12:48:38.219Z,54.31
2018-04-12T12:49:38.219Z,53.83
2018-04-12T12:50:38.221Z,54.57
2018-04-12T12:51:38.232Z,54.60
2018-04-12T12:52:38.230Z,54.00
2018-04-12T12:53:38.230Z,53.90
2018-04-12T12:54:38.246Z,54.64
2018-04-12T12:55:38.240Z,55.24
2018-04-12T12:56:38.273Z,54.28
2018-04-12T12:57:38.256Z,53.90
2018-04-12T12:58:38.261Z,54.28
2018-04-12T12:59:38.257Z,53.70
2018-04-12T13:00:38.269Z,53.80
2018-04-12T13:01:38.262Z,53.92
2018-04-12T13:02:38.273Z,53.92
2018-04-12T13:03:38.433Z,54.60
2018-04-12T13:04:38.278Z,54.96
2018-04-12T13:05:38.310Z,54.60
2018-04-12T13:06:38.283Z,53.25
2018-04-12T13:07:38.281Z,52.29
2018-04-12T13:08:38.310Z,52.00
2018-04-12T13:09:38.307Z,52.97
2018-04-12T13:10:38.323Z,52.97
2018-04-12T13:11:38.306Z,52.00
2018-04-12T13:12:38.328Z,52.77
2018-04-12T13:13:38.331Z,52.39
2018-04-12T13:14:38.308Z,52.48
2018-04-12T13:15:38.316Z,52.10
2018-04-12T13:16:38.308Z,52.48
2018-04-12T13:17:38.315Z,52.29
2018-04-12T13:18:38.321Z,52.10
2018-04-12T13:19:38.333Z,51.81
2018-04-12T13:20:38.322Z,52.20
2018-04-12T13:21:38.371Z,52.97
2018-04-12T13:22:38.339Z,53.25
2018-04-12T13:23:38.345Z,52.97
2018-04-12T13:24:38.373Z,52.97
2018-04-12T13:25:38.340Z,53.06
2018-04-12T13:26:38.346Z,53.13
2018-04-12T13:27:38.353Z,53.80
2018-04-12T13:28:38.366Z,54.28
2018-04-12T13:29:38.355Z,54.77
2018-04-12T13:30:38.405Z,53.90
2018-04-12T13:31:38.382Z,53.70
2018-04-12T13:32:38.389Z,54.00
2018-04-12T13:33:38.385Z,53.70
2018-04-12T13:34:38.383Z,53.06
2018-04-12T13:35:38.421Z,53.06
2018-04-12T13:36:38.409Z,53.16
2018-04-12T13:38:59.000Z,51.93
2018-04-12T13:39:59.010Z,51.45
2018-04-12T13:41:52.429Z,50.01
2018-04-12T13:42:52.391Z,50.49
2018-04-12T13:43:52.419Z,50.59
2018-04-12T13:44:52.448Z,51.33
2018-04-12T13:45:52.407Z,52.29
2018-04-12T13:46:52.417Z,51.91
2018-04-12T13:47:52.424Z,51.43
2018-04-12T13:48:52.431Z,51.79
2018-04-12T13:49:52.454Z,51.43
2018-04-12T13:50:52.428Z,51.23
2018-04-12T13:51:52.426Z,50.97
2018-04-12T13:52:52.433Z,50.01
2018-04-12T13:53:52.459Z,50.85
2018-04-12T13:54:52.535Z,51.33
2018-04-12T13:55:52.464Z,52.20
2018-04-12T13:56:52.461Z,50.85
2018-04-12T13:57:52.511Z,50.76
2018-04-12T13:58:52.449Z,51.04